sensor_id;sensor_type;location;lat;lon;timestamp;pressure;altitude;pressure_sealevel;temperature;humidity
58686;BME280;44465;53.206;-6.106;2024-01-07T00:01:12;102541.38;;;20.41;48.76
58686;BME280;44465;53.206;-6.106;2024-01-07T00:03:40;102547.63;;;20.42;48.62
58686;BME280;44465;53.206;-6.106;2024-01-07T00:06:06;102541.38;;;20.41;48.47
58686;BME280;44465;53.206;-6.106;2024-01-07T00:08:32;102539.63;;;20.42;48.72
58686;BME280;44465;53.206;-6.106;2024-01-07T00:10:58;102531.69;;;20.37;48.59
58686;BME280;44465;53.206;-6.106;2024-01-07T00:13:24;102537.97;;;20.36;48.59
58686;BME280;44465;53.206;-6.106;2024-01-07T00:15:49;102536.22;;;20.35;48.46
58686;BME280;44465;53.206;-6.106;2024-01-07T00:18:15;102537.97;;;20.35;48.49
58686;BME280;44465;53.206;-6.106;2024-01-07T00:20:41;102544.97;;;20.40;48.42
58686;BME280;44465;53.206;-6.106;2024-01-07T00:23:07;102535.28;;;20.36;48.53
58686;BME280;44465;53.206;-6.106;2024-01-07T00:25:33;102535.44;;;20.30;48.61
58686;BME280;44465;53.206;-6.106;2024-01-07T00:27:59;102554.81;;;20.40;48.46
58686;BME280;44465;53.206;-6.106;2024-01-07T00:30:25;102558.34;;;20.40;48.59
58686;BME280;44465;53.206;-6.106;2024-01-07T00:32:51;102541.69;;;20.30;48.64
58686;BME280;44465;53.206;-6.106;2024-01-07T00:35:17;102561.84;;;20.44;48.57
58686;BME280;44465;53.206;-6.106;2024-01-07T00:37:48;102558.34;;;20.40;48.59
58686;BME280;44465;53.206;-6.106;2024-01-07T00:40:17;102567.19;;;20.44;48.54
58686;BME280;44465;53.206;-6.106;2024-01-07T00:42:43;102558.34;;;20.40;48.26
58686;BME280;44465;53.206;-6.106;2024-01-07T00:45:09;102560.16;;;20.40;48.47
58686;BME280;44465;53.206;-6.106;2024-01-07T00:47:35;102560.28;;;20.35;48.55
58686;BME280;44465;53.206;-6.106;2024-01-07T00:50:01;102579.75;;;20.42;48.42
58686;BME280;44465;53.206;-6.106;2024-01-07T00:52:29;102553.28;;;20.29;48.22
58686;BME280;44465;53.206;-6.106;2024-01-07T00:54:57;102584.22;;;20.41;48.59
58686;BME280;44465;53.206;-6.106;2024-01-07T00:57:23;102588.69;;;20.41;48.30
58686;BME280;44465;53.206;-6.106;2024-01-07T00:59:49;102580.69;;;20.39;48.41
58686;BME280;44465;53.206;-6.106;2024-01-07T01:02:17;102578.09;;;20.36;48.39
58686;BME280;44465;53.206;-6.106;2024-01-07T01:04:43;102588.69;;;20.41;48.28
58686;BME280;44465;53.206;-6.106;2024-01-07T01:07:08;102561.38;;;20.26;48.06
58686;BME280;44465;53.206;-6.106;2024-01-07T01:09:35;102583.34;;;20.39;48.23
58686;BME280;44465;53.206;-6.106;2024-01-07T01:12:00;102575.44;;;20.36;48.25
58686;BME280;44465;53.206;-6.106;2024-01-07T01:14:26;102584.22;;;20.41;48.19
58686;BME280;44465;53.206;-6.106;2024-01-07T01:16:52;102568.38;;;20.32;48.30
58686;BME280;44465;53.206;-6.106;2024-01-07T01:19:18;102547.38;;;20.17;48.38
58686;BME280;44465;53.206;-6.106;2024-01-07T01:21:44;102589.56;;;20.41;48.28
58686;BME280;44465;53.206;-6.106;2024-01-07T01:24:10;102573.66;;;20.35;48.22
58686;BME280;44465;53.206;-6.106;2024-01-07T01:26:36;102584.31;;;20.38;48.27
58686;BME280;44465;53.206;-6.106;2024-01-07T01:29:07;102583.34;;;20.39;48.23
58686;BME280;44465;53.206;-6.106;2024-01-07T01:31:33;102581.56;;;20.40;48.07
58686;BME280;44465;53.206;-6.106;2024-01-07T01:34:07;102581.63;;;20.38;48.26
58686;BME280;44465;53.206;-6.106;2024-01-07T01:36:36;102549.19;;;20.14;48.14
58686;BME280;44465;53.206;-6.106;2024-01-07T01:39:10;102577.31;;;20.31;48.14
58686;BME280;44465;53.206;-6.106;2024-01-07T01:41:46;102583.59;;;20.30;48.13
58686;BME280;44465;53.206;-6.106;2024-01-07T01:44:12;102589.72;;;20.35;47.91
58686;BME280;44465;53.206;-6.106;2024-01-07T01:46:45;102579.25;;;20.26;48.19
58686;BME280;44465;53.206;-6.106;2024-01-07T01:49:16;102603.94;;;20.37;48.58
58686;BME280;44465;53.206;-6.106;2024-01-07T01:51:43;102599.50;;;20.36;48.28
58686;BME280;44465;53.206;-6.106;2024-01-07T01:54:11;102576.69;;;20.20;48.33
58686;BME280;44465;53.206;-6.106;2024-01-07T01:56:38;102589.84;;;20.29;47.93
58686;BME280;44465;53.206;-6.106;2024-01-07T01:59:04;102601.41;;;20.31;48.10
58686;BME280;44465;53.206;-6.106;2024-01-07T02:01:34;102595.97;;;20.34;47.90
58686;BME280;44465;53.206;-6.106;2024-01-07T02:04:03;102600.38;;;20.37;48.13
58686;BME280;44465;53.206;-6.106;2024-01-07T02:06:29;102609.28;;;20.37;48.09
58686;BME280;44465;53.206;-6.106;2024-01-07T02:08:55;102603.09;;;20.35;48.13
58686;BME280;44465;53.206;-6.106;2024-01-07T02:11:22;102613.75;;;20.37;48.07
58686;BME280;44465;53.206;-6.106;2024-01-07T02:13:49;102620.19;;;20.29;48.43
58686;BME280;44465;53.206;-6.106;2024-01-07T02:16:16;102617.50;;;20.29;48.15
58686;BME280;44465;53.206;-6.106;2024-01-07T02:18:43;102624.50;;;20.34;48.06
58686;BME280;44465;53.206;-6.106;2024-01-07T02:21:12;102633.44;;;20.34;48.08
58686;BME280;44465;53.206;-6.106;2024-01-07T02:23:38;102629.00;;;20.33;48.20
58686;BME280;44465;53.206;-6.106;2024-01-07T02:26:06;102629.06;;;20.30;48.16
58686;BME280;44465;53.206;-6.106;2024-01-07T02:28:32;102639.72;;;20.33;47.87
58686;BME280;44465;53.206;-6.106;2024-01-07T02:30:59;102635.28;;;20.32;48.05
58686;BME280;44465;53.206;-6.106;2024-01-07T02:33:25;102646.78;;;20.36;47.94
58686;BME280;44465;53.206;-6.106;2024-01-07T02:35:51;102654.81;;;20.36;47.96
58686;BME280;44465;53.206;-6.106;2024-01-07T02:38:17;102648.59;;;20.35;48.17
58686;BME280;44465;53.206;-6.106;2024-01-07T02:40:43;102651.25;;;20.35;48.14
58686;BME280;44465;53.206;-6.106;2024-01-07T02:43:09;102643.34;;;20.29;47.89
58686;BME280;44465;53.206;-6.106;2024-01-07T02:45:34;102648.72;;;20.29;47.91
58686;BME280;44465;53.206;-6.106;2024-01-07T02:48:01;102649.53;;;20.33;48.30
58686;BME280;44465;53.206;-6.106;2024-01-07T02:50:27;102649.50;;;20.34;48.10
58686;BME280;44465;53.206;-6.106;2024-01-07T02:52:53;102652.22;;;20.31;47.76
58686;BME280;44465;53.206;-6.106;2024-01-07T02:55:21;102643.34;;;20.29;47.91
58686;BME280;44465;53.206;-6.106;2024-01-07T02:57:46;102641.63;;;20.28;48.14
58686;BME280;44465;53.206;-6.106;2024-01-07T03:00:13;102644.25;;;20.29;47.93
58686;BME280;44465;53.206;-6.106;2024-01-07T03:02:39;102643.34;;;20.29;47.79
58686;BME280;44465;53.206;-6.106;2024-01-07T03:05:06;102648.72;;;20.29;47.88
58686;BME280;44465;53.206;-6.106;2024-01-07T03:07:32;102659.31;;;20.34;47.92
58686;BME280;44465;53.206;-6.106;2024-01-07T03:09:58;102657.53;;;20.34;47.77
58686;BME280;44465;53.206;-6.106;2024-01-07T03:12:24;102660.25;;;20.33;47.89
58686;BME280;44465;53.206;-6.106;2024-01-07T03:14:50;102609.22;;;20.01;47.93
58686;BME280;44465;53.206;-6.106;2024-01-07T03:17:16;102660.25;;;20.33;47.87
58686;BME280;44465;53.206;-6.106;2024-01-07T03:19:43;102666.47;;;20.33;48.17
58686;BME280;44465;53.206;-6.106;2024-01-07T03:22:12;102657.59;;;20.31;47.94
58686;BME280;44465;53.206;-6.106;2024-01-07T03:24:41;102652.38;;;20.25;48.06
58686;BME280;44465;53.206;-6.106;2024-01-07T03:27:07;102662.97;;;20.29;47.84
58686;BME280;44465;53.206;-6.106;2024-01-07T03:29:33;102661.16;;;20.30;48.05
58686;BME280;44465;53.206;-6.106;2024-01-07T03:31:59;102658.50;;;20.30;48.02
58686;BME280;44465;53.206;-6.106;2024-01-07T03:34:25;102662.13;;;20.27;48.03
58686;BME280;44465;53.206;-6.106;2024-01-07T03:36:51;102667.38;;;20.32;47.93
58686;BME280;44465;53.206;-6.106;2024-01-07T03:39:19;102666.53;;;20.30;47.84
58686;BME280;44465;53.206;-6.106;2024-01-07T03:41:45;102630.50;;;20.06;47.90
58686;BME280;44465;53.206;-6.106;2024-01-07T03:44:17;102668.28;;;20.31;47.81
58686;BME280;44465;53.206;-6.106;2024-01-07T03:46:44;102677.16;;;20.33;47.73
58686;BME280;44465;53.206;-6.106;2024-01-07T03:49:10;102678.22;;;20.26;48.12
58686;BME280;44465;53.206;-6.106;2024-01-07T03:51:36;102667.59;;;20.23;48.09
58686;BME280;44465;53.206;-6.106;2024-01-07T03:54:02;102673.72;;;20.28;47.86
58686;BME280;44465;53.206;-6.106;2024-01-07T03:56:29;102656.19;;;20.13;47.96
58686;BME280;44465;53.206;-6.106;2024-01-07T03:58:57;102685.25;;;20.30;47.78
58686;BME280;44465;53.206;-6.106;2024-01-07T04:01:23;102667.53;;;20.24;48.21
58686;BME280;44465;53.206;-6.106;2024-01-07T04:03:49;102662.28;;;20.21;47.97
58686;BME280;44465;53.206;-6.106;2024-01-07T04:06:15;102681.72;;;20.29;47.93
58686;BME280;44465;53.206;-6.106;2024-01-07T04:08:41;102685.34;;;20.27;47.90
58686;BME280;44465;53.206;-6.106;2024-01-07T04:11:08;102686.16;;;20.29;47.88
58686;BME280;44465;53.206;-6.106;2024-01-07T04:13:34;102687.94;;;20.30;47.88
58686;BME280;44465;53.206;-6.106;2024-01-07T04:16:00;102693.28;;;20.30;47.90
58686;BME280;44465;53.206;-6.106;2024-01-07T04:18:27;102672.09;;;20.21;48.02
58686;BME280;44465;53.206;-6.106;2024-01-07T04:20:55;102691.50;;;20.29;47.95
58686;BME280;44465;53.206;-6.106;2024-01-07T04:23:21;102691.59;;;20.26;48.04
58686;BME280;44465;53.206;-6.106;2024-01-07T04:25:47;102688.00;;;20.27;47.91
58686;BME280;44465;53.206;-6.106;2024-01-07T04:28:15;102690.78;;;20.22;47.70
58686;BME280;44465;53.206;-6.106;2024-01-07T04:30:40;102688.88;;;20.27;47.59
58686;BME280;44465;53.206;-6.106;2024-01-07T04:33:06;102700.44;;;20.29;47.74
58686;BME280;44465;53.206;-6.106;2024-01-07T04:35:32;102669.56;;;20.13;48.01
58686;BME280;44465;53.206;-6.106;2024-01-07T04:37:59;102694.28;;;20.24;47.95
58686;BME280;44465;53.206;-6.106;2024-01-07T04:40:25;102701.50;;;20.22;47.81
58686;BME280;44465;53.206;-6.106;2024-01-07T04:42:51;102710.28;;;20.27;47.75
58686;BME280;44465;53.206;-6.106;2024-01-07T04:45:17;102708.66;;;20.20;48.01
58686;BME280;44465;53.206;-6.106;2024-01-07T04:47:43;102720.03;;;20.30;48.08
58686;BME280;44465;53.206;-6.106;2024-01-07T04:50:09;102716.59;;;20.25;47.82
58686;BME280;44465;53.206;-6.106;2024-01-07T04:52:36;102721.84;;;20.29;48.05
58686;BME280;44465;53.206;-6.106;2024-01-07T04:55:01;102705.94;;;20.22;47.81
58686;BME280;44465;53.206;-6.106;2024-01-07T04:57:29;102715.69;;;20.24;47.74
58686;BME280;44465;53.206;-6.106;2024-01-07T04:59:55;102728.03;;;20.32;47.83
58686;BME280;44465;53.206;-6.106;2024-01-07T05:02:21;102718.34;;;20.26;48.01
58686;BME280;44465;53.206;-6.106;2024-01-07T05:04:47;102722.75;;;20.28;47.88
58686;BME280;44465;53.206;-6.106;2024-01-07T05:07:14;102728.97;;;20.29;47.91
58686;BME280;44465;53.206;-6.106;2024-01-07T05:09:40;102691.06;;;20.08;47.56
58686;BME280;44465;53.206;-6.106;2024-01-07T05:12:06;102722.75;;;20.28;47.70
58686;BME280;44465;53.206;-6.106;2024-01-07T05:14:32;102728.06;;;20.30;47.79
58686;BME280;44465;53.206;-6.106;2024-01-07T05:16:57;102726.34;;;20.27;47.58
58686;BME280;44465;53.206;-6.106;2024-01-07T05:19:23;102731.66;;;20.29;47.82
58686;BME280;44465;53.206;-6.106;2024-01-07T05:21:48;102734.31;;;20.29;47.88
58686;BME280;44465;53.206;-6.106;2024-01-07T05:24:14;102734.31;;;20.29;47.66
58686;BME280;44465;53.206;-6.106;2024-01-07T05:26:44;102733.50;;;20.27;47.74
58686;BME280;44465;53.206;-6.106;2024-01-07T05:29:10;102737.84;;;20.31;47.83
58686;BME280;44465;53.206;-6.106;2024-01-07T05:31:38;102746.84;;;20.28;47.72
58686;BME280;44465;53.206;-6.106;2024-01-07T05:34:04;102722.03;;;20.20;47.92
58686;BME280;44465;53.206;-6.106;2024-01-07T05:36:30;102731.88;;;20.18;47.69
58686;BME280;44465;53.206;-6.106;2024-01-07T05:38:56;102743.19;;;20.31;47.80
58686;BME280;44465;53.206;-6.106;2024-01-07T05:41:22;102748.63;;;20.28;47.63
58686;BME280;44465;53.206;-6.106;2024-01-07T05:43:49;102754.84;;;20.28;47.50
58686;BME280;44465;53.206;-6.106;2024-01-07T05:46:16;102761.06;;;20.30;47.85
58686;BME280;44465;53.206;-6.106;2024-01-07T05:48:44;102754.00;;;20.28;47.70
58686;BME280;44465;53.206;-6.106;2024-01-07T05:51:11;102761.06;;;20.29;47.68
58686;BME280;44465;53.206;-6.106;2024-01-07T05:53:37;102748.75;;;20.22;47.77
58686;BME280;44465;53.206;-6.106;2024-01-07T05:56:04;102756.63;;;20.29;47.82
58686;BME280;44465;53.206;-6.106;2024-01-07T05:58:30;102753.22;;;20.21;47.64
58686;BME280;44465;53.206;-6.106;2024-01-07T06:00:57;102761.16;;;20.26;47.73
58686;BME280;44465;53.206;-6.106;2024-01-07T06:03:23;102759.34;;;20.28;47.76
58686;BME280;44465;53.206;-6.106;2024-01-07T06:05:50;102761.97;;;20.29;47.54
58686;BME280;44465;53.206;-6.106;2024-01-07T06:08:16;102752.22;;;20.27;47.65
58686;BME280;44465;53.206;-6.106;2024-01-07T06:10:43;102761.06;;;20.29;47.55
58686;BME280;44465;53.206;-6.106;2024-01-07T06:13:12;102761.13;;;20.27;47.52
58686;BME280;44465;53.206;-6.106;2024-01-07T06:15:38;102758.50;;;20.26;47.78
58686;BME280;44465;53.206;-6.106;2024-01-07T06:18:05;102768.19;;;20.30;47.65
58686;BME280;44465;53.206;-6.106;2024-01-07T06:20:31;102773.53;;;20.30;47.64
58686;BME280;44465;53.206;-6.106;2024-01-07T06:22:58;102760.34;;;20.22;47.67
58686;BME280;44465;53.206;-6.106;2024-01-07T06:25:25;102780.75;;;20.28;47.69
58686;BME280;44465;53.206;-6.106;2024-01-07T06:27:51;102765.63;;;20.25;47.98
58686;BME280;44465;53.206;-6.106;2024-01-07T06:30:17;102768.47;;;20.18;47.78
58686;BME280;44465;53.206;-6.106;2024-01-07T06:32:45;102782.47;;;20.29;47.77
58686;BME280;44465;53.206;-6.106;2024-01-07T06:35:11;102785.25;;;20.26;47.80
58686;BME280;44465;53.206;-6.106;2024-01-07T06:37:37;102782.56;;;20.26;47.68
58686;BME280;44465;53.206;-6.106;2024-01-07T06:40:03;102782.56;;;20.26;47.83
58686;BME280;44465;53.206;-6.106;2024-01-07T06:42:28;102787.84;;;20.29;47.70
58686;BME280;44465;53.206;-6.106;2024-01-07T06:44:55;102790.50;;;20.29;47.64
58686;BME280;44465;53.206;-6.106;2024-01-07T06:47:21;102774.59;;;20.23;47.71
58686;BME280;44465;53.206;-6.106;2024-01-07T06:49:46;102771.97;;;20.20;47.48
58686;BME280;44465;53.206;-6.106;2024-01-07T06:52:14;102788.78;;;20.28;47.56
58686;BME280;44465;53.206;-6.106;2024-01-07T06:54:40;102792.38;;;20.25;47.54
58686;BME280;44465;53.206;-6.106;2024-01-07T06:57:06;102803.88;;;20.29;47.60
58686;BME280;44465;53.206;-6.106;2024-01-07T06:59:32;102797.66;;;20.28;47.50
58686;BME280;44465;53.206;-6.106;2024-01-07T07:01:58;102809.22;;;20.29;48.02
58686;BME280;44465;53.206;-6.106;2024-01-07T07:04:24;102805.78;;;20.24;47.99
58686;BME280;44465;53.206;-6.106;2024-01-07T07:06:50;102801.31;;;20.24;47.71
58686;BME280;44465;53.206;-6.106;2024-01-07T07:09:18;102812.09;;;20.21;47.76
58686;BME280;44465;53.206;-6.106;2024-01-07T07:11:45;102812.97;;;20.22;47.82
58686;BME280;44465;53.206;-6.106;2024-01-07T07:14:12;102817.34;;;20.24;47.64
58686;BME280;44465;53.206;-6.106;2024-01-07T07:16:38;102822.75;;;20.23;47.78
58686;BME280;44465;53.206;-6.106;2024-01-07T07:19:05;102829.81;;;20.25;47.35
58686;BME280;44465;53.206;-6.106;2024-01-07T07:21:32;102814.88;;;20.15;47.59
58686;BME280;44465;53.206;-6.106;2024-01-07T07:23:59;102838.75;;;20.26;47.45
58686;BME280;44465;53.206;-6.106;2024-01-07T07:26:25;102849.41;;;20.27;47.58
58686;BME280;44465;53.206;-6.106;2024-01-07T07:28:51;102838.81;;;20.23;47.54
58686;BME280;44465;53.206;-6.106;2024-01-07T07:31:17;102855.66;;;20.26;47.63
58686;BME280;44465;53.206;-6.106;2024-01-07T07:33:43;102858.34;;;20.26;47.54
58686;BME280;44465;53.206;-6.106;2024-01-07T07:36:09;102852.97;;;20.28;47.52
58686;BME280;44465;53.206;-6.106;2024-01-07T07:38:35;102860.13;;;20.27;47.63
58686;BME280;44465;53.206;-6.106;2024-01-07T07:41:01;102845.09;;;20.19;47.59
58686;BME280;44465;53.206;-6.106;2024-01-07T07:43:27;102857.50;;;20.24;47.76
58686;BME280;44465;53.206;-6.106;2024-01-07T07:45:54;102856.66;;;20.22;47.58
58686;BME280;44465;53.206;-6.106;2024-01-07T07:48:21;102871.72;;;20.26;47.39
58686;BME280;44465;53.206;-6.106;2024-01-07T07:50:48;102877.06;;;20.26;47.68
58686;BME280;44465;53.206;-6.106;2024-01-07T07:53:15;102872.66;;;20.24;47.61
58686;BME280;44465;53.206;-6.106;2024-01-07T07:55:41;102870.88;;;20.24;47.59
58686;BME280;44465;53.206;-6.106;2024-01-07T07:58:07;102880.66;;;20.25;47.37
58686;BME280;44465;53.206;-6.106;2024-01-07T08:00:35;102882.41;;;20.28;47.46
58686;BME280;44465;53.206;-6.106;2024-01-07T08:03:01;102867.38;;;20.21;47.57
58686;BME280;44465;53.206;-6.106;2024-01-07T08:05:26;102883.31;;;20.27;47.56
58686;BME280;44465;53.206;-6.106;2024-01-07T08:07:52;102860.34;;;20.15;47.40
58686;BME280;44465;53.206;-6.106;2024-01-07T08:10:18;102886.00;;;20.27;47.38
58686;BME280;44465;53.206;-6.106;2024-01-07T08:12:44;102884.22;;;20.26;47.29
58686;BME280;44465;53.206;-6.106;2024-01-07T08:15:09;102874.44;;;20.23;47.67
58686;BME280;44465;53.206;-6.106;2024-01-07T08:17:35;102886.91;;;20.24;47.34
58686;BME280;44465;53.206;-6.106;2024-01-07T08:20:02;102881.59;;;20.23;47.61
58686;BME280;44465;53.206;-6.106;2024-01-07T08:22:30;102893.19;;;20.23;47.47
58686;BME280;44465;53.206;-6.106;2024-01-07T08:24:56;102902.00;;;20.28;47.45
58686;BME280;44465;53.206;-6.106;2024-01-07T08:27:22;102902.91;;;20.27;47.57
58686;BME280;44465;53.206;-6.106;2024-01-07T08:29:48;102902.06;;;20.27;47.54
58686;BME280;44465;53.206;-6.106;2024-01-07T08:32:15;102890.66;;;20.15;47.57
58686;BME280;44465;53.206;-6.106;2024-01-07T08:34:44;102907.41;;;20.27;47.47
58686;BME280;44465;53.206;-6.106;2024-01-07T08:37:10;102908.31;;;20.26;47.57
58686;BME280;44465;53.206;-6.106;2024-01-07T08:39:36;102909.22;;;20.25;47.44
58686;BME280;44465;53.206;-6.106;2024-01-07T08:42:02;102908.31;;;20.24;47.50
58686;BME280;44465;53.206;-6.106;2024-01-07T08:44:31;102910.13;;;20.24;47.53
58686;BME280;44465;53.206;-6.106;2024-01-07T08:46:58;102913.75;;;20.20;47.83
58686;BME280;44465;53.206;-6.106;2024-01-07T08:49:28;102920.88;;;20.22;47.32
58686;BME280;44465;53.206;-6.106;2024-01-07T08:51:56;102923.50;;;20.24;47.53
58686;BME280;44465;53.206;-6.106;2024-01-07T08:54:23;102927.03;;;20.26;47.68
58686;BME280;44465;53.206;-6.106;2024-01-07T08:56:50;102926.19;;;20.24;47.39
58686;BME280;44465;53.206;-6.106;2024-01-07T08:59:16;102934.16;;;20.27;47.60
58686;BME280;44465;53.206;-6.106;2024-01-07T09:01:42;102920.88;;;20.22;47.48
58686;BME280;44465;53.206;-6.106;2024-01-07T09:04:10;102935.06;;;20.26;47.41
58686;BME280;44465;53.206;-6.106;2024-01-07T09:06:37;102928.03;;;20.20;47.71
58686;BME280;44465;53.206;-6.106;2024-01-07T09:09:04;102935.06;;;20.26;47.56
58686;BME280;44465;53.206;-6.106;2024-01-07T09:11:33;102915.59;;;20.16;47.53
58686;BME280;44465;53.206;-6.106;2024-01-07T09:13:59;102916.50;;;20.17;47.26
58686;BME280;44465;53.206;-6.106;2024-01-07T09:16:25;102921.88;;;20.15;47.47
58686;BME280;44465;53.206;-6.106;2024-01-07T09:18:53;102926.25;;;20.19;47.28
58686;BME280;44465;53.206;-6.106;2024-01-07T09:21:21;102945.78;;;20.26;47.43
58686;BME280;44465;53.206;-6.106;2024-01-07T09:23:48;102928.13;;;20.14;47.45
58686;BME280;44465;53.206;-6.106;2024-01-07T09:26:14;102939.59;;;20.21;47.58
58686;BME280;44465;53.206;-6.106;2024-01-07T09:28:39;102955.56;;;20.27;47.13
58686;BME280;44465;53.206;-6.106;2024-01-07T09:31:06;102956.44;;;20.27;47.31
58686;BME280;44465;53.206;-6.106;2024-01-07T09:33:34;102925.53;;;20.09;47.36
58686;BME280;44465;53.206;-6.106;2024-01-07T09:36:00;102955.56;;;20.27;47.23
58686;BME280;44465;53.206;-6.106;2024-01-07T09:38:26;102940.50;;;20.21;47.50
58686;BME280;44465;53.206;-6.106;2024-01-07T09:40:52;102956.44;;;20.27;47.26
58686;BME280;44465;53.206;-6.106;2024-01-07T09:43:21;102943.22;;;20.18;46.98
58686;BME280;44465;53.206;-6.106;2024-01-07T09:45:50;102949.44;;;20.20;47.06
58686;BME280;44465;53.206;-6.106;2024-01-07T09:48:18;102957.38;;;20.25;47.10
58686;BME280;44465;53.206;-6.106;2024-01-07T09:50:49;102962.69;;;20.28;46.99
58686;BME280;44465;53.206;-6.106;2024-01-07T09:53:25;102963.72;;;20.19;47.59
58686;BME280;44465;53.206;-6.106;2024-01-07T09:56:04;102966.34;;;20.21;47.48
58686;BME280;44465;53.206;-6.106;2024-01-07T09:58:33;102974.38;;;20.22;47.39
58686;BME280;44465;53.206;-6.106;2024-01-07T10:00:59;102971.63;;;20.25;47.28
58686;BME280;44465;53.206;-6.106;2024-01-07T10:03:25;102961.00;;;20.22;47.25
58686;BME280;44465;53.206;-6.106;2024-01-07T10:05:52;102966.31;;;20.24;47.00
58686;BME280;44465;53.206;-6.106;2024-01-07T10:08:19;102936.44;;;19.98;47.62
58686;BME280;44465;53.206;-6.106;2024-01-07T10:10:49;102975.28;;;20.20;47.44
58686;BME280;44465;53.206;-6.106;2024-01-07T10:13:15;102985.88;;;20.27;47.11
58686;BME280;44465;53.206;-6.106;2024-01-07T10:15:43;102977.00;;;20.24;47.21
58686;BME280;44465;53.206;-6.106;2024-01-07T10:18:09;102979.59;;;20.28;47.23
58686;BME280;44465;53.206;-6.106;2024-01-07T10:20:35;102973.44;;;20.25;47.33
58686;BME280;44465;53.206;-6.106;2024-01-07T10:23:02;102986.81;;;20.25;47.26
58686;BME280;44465;53.206;-6.106;2024-01-07T10:25:30;102955.97;;;20.02;47.21
58686;BME280;44465;53.206;-6.106;2024-01-07T10:28:01;102973.50;;;20.19;47.28
58686;BME280;44465;53.206;-6.106;2024-01-07T10:30:28;102997.44;;;20.29;47.09
58686;BME280;44465;53.206;-6.106;2024-01-07T10:32:58;102991.19;;;20.29;47.35
58686;BME280;44465;53.206;-6.106;2024-01-07T10:35:32;103005.53;;;20.25;47.06
58686;BME280;44465;53.206;-6.106;2024-01-07T10:38:02;103009.97;;;20.24;47.19
58686;BME280;44465;53.206;-6.106;2024-01-07T10:40:30;102999.28;;;20.24;47.33
58686;BME280;44465;53.206;-6.106;2024-01-07T10:42:58;103010.72;;;20.34;47.28
58686;BME280;44465;53.206;-6.106;2024-01-07T10:45:23;102973.75;;;20.06;47.18
58686;BME280;44465;53.206;-6.106;2024-01-07T10:47:50;102980.78;;;20.10;47.23
58686;BME280;44465;53.206;-6.106;2024-01-07T10:50:18;103009.13;;;20.24;47.13
58686;BME280;44465;53.206;-6.106;2024-01-07T10:52:49;102975.53;;;20.06;47.25
58686;BME280;44465;53.206;-6.106;2024-01-07T10:55:52;103024.16;;;20.31;47.07
58686;BME280;44465;53.206;-6.106;2024-01-07T10:58:26;103003.81;;;20.21;46.85
58686;BME280;44465;53.206;-6.106;2024-01-07T11:00:53;103022.44;;;20.27;47.19
58686;BME280;44465;53.206;-6.106;2024-01-07T11:03:30;103023.34;;;20.26;47.02
58686;BME280;44465;53.206;-6.106;2024-01-07T11:06:20;103027.75;;;20.28;46.90
58686;BME280;44465;53.206;-6.106;2024-01-07T11:08:58;103035.75;;;20.30;46.89
58686;BME280;44465;53.206;-6.106;2024-01-07T11:11:35;103028.56;;;20.35;46.88
58686;BME280;44465;53.206;-6.106;2024-01-07T11:14:03;103019.69;;;20.32;46.86
58686;BME280;44465;53.206;-6.106;2024-01-07T11:16:42;103025.06;;;20.30;47.09
58686;BME280;44465;53.206;-6.106;2024-01-07T11:19:09;102995.00;;;20.14;46.89
58686;BME280;44465;53.206;-6.106;2024-01-07T11:21:42;103006.47;;;20.22;47.13
58686;BME280;44465;53.206;-6.106;2024-01-07T11:24:08;102994.09;;;20.17;47.18
58686;BME280;44465;53.206;-6.106;2024-01-07T11:26:34;103019.78;;;20.25;46.97
58686;BME280;44465;53.206;-6.106;2024-01-07T11:29:00;103023.25;;;20.32;47.02
58686;BME280;44465;53.206;-6.106;2024-01-07T11:34:03;103013.59;;;20.22;47.13
58686;BME280;44465;53.206;-6.106;2024-01-07T11:36:29;103005.53;;;20.25;46.82
58686;BME280;44465;53.206;-6.106;2024-01-07T11:38:55;103032.00;;;20.40;47.11
58686;BME280;44465;53.206;-6.106;2024-01-07T11:41:23;103006.47;;;20.21;46.94
58686;BME280;44465;53.206;-6.106;2024-01-07T11:43:58;103028.59;;;20.32;46.91
58686;BME280;44465;53.206;-6.106;2024-01-07T11:46:33;103024.16;;;20.33;47.00
58686;BME280;44465;53.206;-6.106;2024-01-07T11:49:13;103026.75;;;20.37;47.26
58686;BME280;44465;53.206;-6.106;2024-01-07T11:51:50;103020.53;;;20.34;47.40
58686;BME280;44465;53.206;-6.106;2024-01-07T11:54:20;103024.22;;;20.28;47.39
58686;BME280;44465;53.206;-6.106;2024-01-07T11:56:52;103018.91;;;20.25;48.28
58686;BME280;44465;53.206;-6.106;2024-01-07T11:59:50;103016.25;;;20.25;47.71
58686;BME280;44465;53.206;-6.106;2024-01-07T12:02:58;103027.66;;;20.35;48.13
58686;BME280;44465;53.206;-6.106;2024-01-07T12:05:48;103025.94;;;20.30;48.84
58686;BME280;44465;53.206;-6.106;2024-01-07T12:08:18;103019.69;;;20.32;48.73
58686;BME280;44465;53.206;-6.106;2024-01-07T12:10:48;103027.66;;;20.35;48.92
58686;BME280;44465;53.206;-6.106;2024-01-07T12:13:19;103001.94;;;20.26;48.47
58686;BME280;44465;53.206;-6.106;2024-01-07T12:15:49;103033.00;;;20.36;48.61
58686;BME280;44465;53.206;-6.106;2024-01-07T12:18:26;103013.56;;;20.23;48.43
58686;BME280;44465;53.206;-6.106;2024-01-07T12:51:24;103010.34;;;20.54;51.90
58686;BME280;44465;53.206;-6.106;2024-01-07T12:53:51;102981.25;;;20.37;52.37
58686;BME280;44465;53.206;-6.106;2024-01-07T12:56:17;103006.81;;;20.54;52.63
58686;BME280;44465;53.206;-6.106;2024-01-07T12:58:44;103009.47;;;20.54;53.76
58686;BME280;44465;53.206;-6.106;2024-01-07T13:01:11;103002.41;;;20.51;52.30
58686;BME280;44465;53.206;-6.106;2024-01-07T13:03:39;102996.97;;;20.56;52.65
58686;BME280;44465;53.206;-6.106;2024-01-07T13:06:06;103015.44;;;20.70;53.34
58686;BME280;44465;53.206;-6.106;2024-01-07T13:08:32;103020.84;;;20.68;53.02
58686;BME280;44465;53.206;-6.106;2024-01-07T13:11:00;103004.75;;;20.68;52.97
58686;BME280;44465;53.206;-6.106;2024-01-07T13:13:28;103016.16;;;20.81;52.58
58686;BME280;44465;53.206;-6.106;2024-01-07T13:15:55;103024.34;;;20.70;51.39